Time;durP1;ratioP1;P1;durP2;ratioP2;P2;SDS_P1;SDS_P2;PMS_P1;PMS_P2;Temp;Humidity;BMP_temperature;BMP_pressure;BME280_temperature;BME280_humidity;BME280_pressure;Samples;Min_cycle;Max_cycle;Signal;HPM_P1;HPM_P2
2022/11/15 00:00:17;;;;;;;;;;;17.40;50.90;;;;;;5093755;28;19924;-75
2022/11/15 00:02:42;;;;;;;;;;;17.40;50.90;;;;;;5093924;28;19973;-75
2022/11/15 00:05:08;;;;;;;;;;;17.50;51.00;;;;;;5075692;28;20318;-75
2022/11/15 00:07:33;;;;;;;;;;;17.40;50.90;;;;;;5093804;28;19920;-74
2022/11/15 00:09:59;;;;;;;;;;;17.40;51.00;;;;;;5075832;28;19920;-74
2022/11/15 00:12:24;;;;;;;;;;;17.40;51.00;;;;;;5075425;28;20406;-74
2022/11/15 00:14:50;;;;;;;;;;;17.40;51.00;;;;;;5093637;28;19931;-75
2022/11/15 00:17:15;;;;;;;;;;;17.30;51.00;;;;;;5075736;28;19998;-75
2022/11/15 00:19:41;;;;;;;;;;;17.30;51.00;;;;;;5075691;28;19927;-74
2022/11/15 00:22:06;;;;;;;;;;;17.30;51.00;;;;;;5093326;28;19920;-75
2022/11/15 00:24:32;;;;;;;;;;;17.30;51.10;;;;;;5075312;28;19927;-75
2022/11/15 00:26:57;;;;;;;;;;;17.30;51.10;;;;;;5092717;28;19947;-75
2022/11/15 00:29:23;;;;;;;;;;;17.30;51.20;;;;;;5075337;28;20440;-74
2022/11/15 00:31:48;;;;;;;;;;;17.30;51.20;;;;;;5093416;28;19920;-70
2022/11/15 00:34:14;;;;;;;;;;;17.30;51.10;;;;;;5093427;28;19920;-70
2022/11/15 00:36:39;;;;;;;;;;;17.30;51.20;;;;;;5074973;28;19920;-75
2022/11/15 00:39:05;;;;;;;;;;;17.30;51.20;;;;;;5074995;28;19920;-75
2022/11/15 00:41:31;;;;;;;;;;;17.20;51.20;;;;;;5074813;28;19931;-70
2022/11/15 00:43:56;;;;;;;;;;;17.20;51.20;;;;;;5075269;28;19927;-75
2022/11/15 00:46:22;;;;;;;;;;;17.20;51.10;;;;;;5092993;28;19920;-75
2022/11/15 00:48:47;;;;;;;;;;;17.20;51.30;;;;;;5093068;28;19969;-70
2022/11/15 00:51:13;;;;;;;;;;;17.20;51.30;;;;;;5074846;28;19920;-75
2022/11/15 00:53:38;;;;;;;;;;;17.20;51.30;;;;;;5074534;28;19924;-74
2022/11/15 00:56:04;;;;;;;;;;;17.20;51.30;;;;;;5075096;28;20019;-74
2022/11/15 00:58:29;;;;;;;;;;;17.20;51.30;;;;;;5074716;28;19920;-74
2022/11/15 01:00:55;;;;;;;;;;;17.20;51.40;;;;;;5074985;28;19982;-74
2022/11/15 01:03:20;;;;;;;;;;;17.20;51.40;;;;;;5074822;28;20042;-74
2022/11/15 01:05:46;;;;;;;;;;;17.20;51.40;;;;;;5092794;28;19920;-69
2022/11/15 01:08:13;;;;;;;;;;;17.20;51.40;;;;;;5074700;28;19920;-74
2022/11/15 01:10:39;;;;;;;;;;;17.10;51.50;;;;;;5074976;28;20032;-74
2022/11/15 01:13:04;;;;;;;;;;;17.20;51.40;;;;;;5074435;28;19970;-75
2022/11/15 01:15:30;;;;;;;;;;;17.10;51.50;;;;;;5074566;28;19924;-74
2022/11/15 01:17:55;;;;;;;;;;;17.10;51.60;;;;;;5092462;28;19920;-69
2022/11/15 01:20:21;;;;;;;;;;;17.10;51.50;;;;;;5092553;28;20280;-74
2022/11/15 01:22:46;;;;;;;;;;;17.10;51.60;;;;;;5092464;28;19920;-69
2022/11/15 01:25:12;;;;;;;;;;;17.20;51.60;;;;;;5074739;28;19920;-69
2022/11/15 01:27:37;;;;;;;;;;;17.30;51.50;;;;;;5074628;28;19920;-69
2022/11/15 01:30:04;;;;;;;;;;;17.50;51.20;;;;;;5092495;28;20326;-74
2022/11/15 01:32:29;;;;;;;;;;;17.90;50.80;;;;;;5070626;28;20443;-74
2022/11/15 01:34:55;;;;;;;;;;;18.20;50.10;;;;;;5070842;28;20000;-74
2022/11/15 01:37:21;;;;;;;;;;;18.60;49.40;;;;;;5070930;28;20015;-74
2022/11/15 01:39:46;;;;;;;;;;;18.90;48.70;;;;;;5071192;28;19928;-74
2022/11/15 01:42:12;;;;;;;;;;;19.40;47.70;;;;;;5070144;28;20375;-73
2022/11/15 01:47:20;;;;;;;;;;;20.60;45.40;;;;;;5110165;27;20292;-73
2022/11/15 01:49:50;;;;;;;;;;;21.20;44.20;;;;;;5109207;28;19920;-74
2022/11/15 01:52:19;;;;;;;;;;;21.80;43.20;;;;;;5108908;28;20383;-70
2022/11/15 01:54:45;;;;;;;;;;;22.10;42.30;;;;;;5143465;27;19919;-73
2022/11/15 01:57:11;;;;;;;;;;;22.60;41.60;;;;;;5109122;28;19930;-73
2022/11/15 01:59:39;;;;;;;;;;;23.00;40.90;;;;;;5091709;28;19920;-73
2022/11/15 02:02:05;;;;;;;;;;;23.20;40.40;;;;;;5108677;28;19981;-73
2022/11/15 02:04:33;;;;;;;;;;;23.50;40.10;;;;;;5108147;28;19924;-74
2022/11/15 02:07:01;;;;;;;;;;;23.60;39.80;;;;;;5108579;28;19924;-73
2022/11/15 02:09:27;;;;;;;;;;;23.70;39.50;;;;;;5108773;28;19920;-72
2022/11/15 02:11:54;;;;;;;;;;;23.90;39.20;;;;;;5108551;28;19920;-72
2022/11/15 02:14:19;;;;;;;;;;;23.90;39.00;;;;;;5109711;28;19920;-72
2022/11/15 02:17:05;;;;;;;;;;;24.10;39.00;;;;;;5108756;28;20003;-72
2022/11/15 02:22:22;;;;;;;;;;;24.20;38.70;;;;;;5089869;28;19912;-71
2022/11/15 02:25:07;;;;;;;;;;;24.30;38.60;;;;;;5088585;28;19924;-68
2022/11/15 02:30:41;;;;;;;;;;;24.40;38.50;;;;;;5089517;28;19913;-69
2022/11/15 02:35:52;;;;;;;;;;;24.50;38.30;;;;;;5127635;27;1860869;-71
2022/11/15 02:41:05;;;;;;;;;;;24.50;38.30;;;;;;5131118;27;1874081;-71
2022/11/15 02:43:58;;;;;;;;;;;24.50;38.30;;;;;;5174403;27;19971;-71
2022/11/15 02:47:12;;;;;;;;;;;24.50;38.40;;;;;;5174569;27;19918;-72
2022/11/15 02:49:27;;;;;;;;;;;24.40;38.40;;;;;;5174055;27;20412;-72
2022/11/15 02:51:54;;;;;;;;;;;24.40;38.50;;;;;;5174414;27;20005;-72
2022/11/15 02:54:22;;;;;;;;;;;24.20;38.40;;;;;;5174515;27;19918;-69
2022/11/15 02:56:49;;;;;;;;;;;24.40;38.60;;;;;;5174092;27;20369;-71
2022/11/15 03:02:03;;;;;;;;;;;24.30;38.70;;;;;;5089932;28;19912;-71
2022/11/15 03:04:36;;;;;;;;;;;24.40;38.90;;;;;;5088682;28;20209;-71
2022/11/15 03:07:07;;;;;;;;;;;24.30;38.80;;;;;;5088795;28;19926;-71
2022/11/15 03:09:35;;;;;;;;;;;24.30;38.90;;;;;;5088494;28;19920;-71
2022/11/15 03:12:21;;;;;;;;;;;24.20;38.80;;;;;;5088365;28;19927;-71
2022/11/15 03:14:54;;;;;;;;;;;24.20;39.00;;;;;;5089630;28;19921;-71
2022/11/15 03:17:39;;;;;;;;;;;24.20;39.00;;;;;;5088677;28;19942;-71
2022/11/15 03:20:08;;;;;;;;;;;24.20;39.10;;;;;;5088022;28;19963;-72
2022/11/15 03:22:37;;;;;;;;;;;24.20;39.20;;;;;;5088228;28;19921;-72
2022/11/15 03:25:05;;;;;;;;;;;24.10;39.10;;;;;;5089523;28;19926;-69
2022/11/15 03:27:33;;;;;;;;;;;24.20;39.20;;;;;;5088634;28;19926;-71
2022/11/15 03:30:00;;;;;;;;;;;24.10;39.20;;;;;;5087027;28;19965;-71
2022/11/15 03:32:28;;;;;;;;;;;24.10;39.30;;;;;;5088038;28;20402;-71
2022/11/15 03:40:17;;;;;;;;;;;24.10;40.00;;;;;;5089993;28;20186;-72
2022/11/15 03:45:26;;;;;;;;;;;24.10;39.40;;;;;;5089886;28;19919;-72
2022/11/15 03:47:58;;;;;;;;;;;24.00;39.40;;;;;;5089823;28;19966;-71
2022/11/15 03:50:24;;;;;;;;;;;24.00;39.50;;;;;;5088576;28;19920;-72
2022/11/15 03:52:50;;;;;;;;;;;24.00;39.40;;;;;;5088531;28;19926;-72
2022/11/15 03:55:17;;;;;;;;;;;24.00;39.60;;;;;;5088754;28;19921;-71
2022/11/15 03:57:42;;;;;;;;;;;23.90;39.70;;;;;;5088646;28;19982;-71
2022/11/15 04:00:08;;;;;;;;;;;23.70;39.90;;;;;;5088371;28;19963;-69
2022/11/15 04:02:34;;;;;;;;;;;23.70;40.10;;;;;;5088662;28;20023;-71
2022/11/15 04:04:59;;;;;;;;;;;23.60;40.30;;;;;;5088155;28;19932;-71
2022/11/15 04:07:25;;;;;;;;;;;23.50;40.50;;;;;;5088213;28;19952;-69
2022/11/15 04:10:05;;;;;;;;;;;23.50;40.70;;;;;;5088444;28;19960;-71
2022/11/15 04:12:32;;;;;;;;;;;23.50;41.10;;;;;;5089417;28;19927;-71
2022/11/15 04:15:07;;;;;;;;;;;23.50;40.70;;;;;;5088345;28;19927;-71
2022/11/15 04:17:37;;;;;;;;;;;23.50;40.70;;;;;;5089282;28;20368;-72
2022/11/15 04:25:37;;;;;;;;;;;23.60;40.50;;;;;;5087244;28;19929;-72
2022/11/15 04:28:03;;;;;;;;;;;23.70;40.40;;;;;;5088009;28;20023;-72
2022/11/15 04:30:29;;;;;;;;;;;23.80;40.30;;;;;;5088974;28;20368;-69
2022/11/15 04:32:54;;;;;;;;;;;23.90;40.20;;;;;;5087679;28;19925;-72
2022/11/15 04:35:20;;;;;;;;;;;23.90;40.10;;;;;;5087565;28;19927;-72
2022/11/15 04:37:45;;;;;;;;;;;24.00;40.00;;;;;;5087873;28;19920;-72
2022/11/15 04:40:11;;;;;;;;;;;24.10;40.00;;;;;;5087526;28;19999;-72
2022/11/15 04:42:36;;;;;;;;;;;24.10;40.00;;;;;;5087838;28;19929;-72
2022/11/15 04:45:02;;;;;;;;;;;24.10;40.00;;;;;;5086881;28;20384;-72
2022/11/15 04:47:29;;;;;;;;;;;24.00;40.00;;;;;;5087412;28;19921;-72
2022/11/15 04:49:54;;;;;;;;;;;24.00;40.00;;;;;;5088616;28;20445;-72
2022/11/15 04:52:20;;;;;;;;;;;23.90;40.10;;;;;;5088685;28;19924;-71
2022/11/15 04:54:45;;;;;;;;;;;23.90;40.20;;;;;;5085978;28;19921;-72
2022/11/15 04:57:11;;;;;;;;;;;23.80;40.30;;;;;;5073721;28;19921;-72
2022/11/15 04:59:36;;;;;;;;;;;23.80;40.50;;;;;;5073714;28;19921;-72
2022/11/15 05:02:02;;;;;;;;;;;23.70;40.60;;;;;;5073686;28;19932;-69
2022/11/15 05:04:27;;;;;;;;;;;23.70;40.70;;;;;;5073674;28;19924;-72
2022/11/15 05:06:53;;;;;;;;;;;23.60;40.80;;;;;;5074094;28;19928;-72
2022/11/15 05:09:19;;;;;;;;;;;23.50;41.00;;;;;;5074851;28;20379;-72
2022/11/15 05:11:45;;;;;;;;;;;23.50;41.00;;;;;;5072746;28;20387;-72
2022/11/15 05:14:10;;;;;;;;;;;23.50;41.10;;;;;;5073037;28;19991;-72
2022/11/15 05:16:36;;;;;;;;;;;23.50;41.20;;;;;;5073494;28;20405;-72
2022/11/15 05:19:02;;;;;;;;;;;23.50;41.20;;;;;;5073760;28;20021;-69
2022/11/15 05:21:27;;;;;;;;;;;23.50;41.30;;;;;;5073156;28;19931;-72
2022/11/15 05:23:53;;;;;;;;;;;23.50;41.30;;;;;;5073435;28;19924;-72
2022/11/15 05:26:18;;;;;;;;;;;23.40;41.30;;;;;;5073488;28;20275;-70
2022/11/15 05:28:44;;;;;;;;;;;23.50;41.30;;;;;;5074847;28;20589;-72
2022/11/15 05:31:11;;;;;;;;;;;23.40;41.30;;;;;;5073565;28;19921;-72
2022/11/15 05:33:38;;;;;;;;;;;23.50;41.40;;;;;;5074326;28;20003;-72
2022/11/15 05:36:22;;;;;;;;;;;23.50;41.30;;;;;;5072614;28;19989;-72
2022/11/15 05:38:48;;;;;;;;;;;23.50;41.30;;;;;;5074230;28;19943;-72
2022/11/15 05:41:14;;;;;;;;;;;23.50;41.40;;;;;;5072876;28;20439;-72
2022/11/15 05:43:41;;;;;;;;;;;23.50;41.30;;;;;;5073011;28;19932;-71
2022/11/15 05:46:06;;;;;;;;;;;23.50;41.40;;;;;;5076104;28;19927;-72
2022/11/15 05:48:33;;;;;;;;;;;23.50;41.30;;;;;;5076352;28;19920;-69
2022/11/15 05:50:59;;;;;;;;;;;23.50;41.30;;;;;;5094182;28;19920;-72
2022/11/15 05:53:25;;;;;;;;;;;23.60;41.40;;;;;;5093549;28;19928;-72
2022/11/15 05:55:51;;;;;;;;;;;23.50;41.30;;;;;;5094163;28;19927;-72
2022/11/15 05:58:17;;;;;;;;;;;23.50;41.30;;;;;;5094118;28;20288;-72
2022/11/15 06:00:43;;;;;;;;;;;23.50;41.40;;;;;;5094230;28;19931;-72
2022/11/15 06:03:09;;;;;;;;;;;23.50;41.30;;;;;;5093996;28;19920;-74
2022/11/15 06:05:34;;;;;;;;;;;23.50;41.40;;;;;;5075778;28;19931;-72
2022/11/15 06:08:00;;;;;;;;;;;23.50;41.50;;;;;;5093173;28;20049;-71
2022/11/15 06:10:25;;;;;;;;;;;23.50;41.50;;;;;;5075682;28;20018;-72
2022/11/15 06:12:58;;;;;;;;;;;23.50;41.50;;;;;;5093950;28;20017;-69
2022/11/15 06:15:24;;;;;;;;;;;23.50;41.60;;;;;;5076026;28;19924;-72
2022/11/15 06:17:50;;;;;;;;;;;23.50;41.70;;;;;;5075591;28;19920;-72
2022/11/15 06:20:15;;;;;;;;;;;23.50;41.70;;;;;;5093693;28;19920;-72
2022/11/15 06:22:41;;;;;;;;;;;23.50;41.70;;;;;;5075361;28;19952;-72
2022/11/15 06:25:06;;;;;;;;;;;23.50;41.70;;;;;;5075404;28;19924;-72
2022/11/15 06:27:32;;;;;;;;;;;23.50;41.70;;;;;;5075579;28;19920;-72
2022/11/15 06:29:57;;;;;;;;;;;23.50;41.80;;;;;;5075593;28;19927;-72
2022/11/15 06:32:23;;;;;;;;;;;23.50;41.80;;;;;;5075302;28;19920;-71
2022/11/15 06:34:48;;;;;;;;;;;23.50;41.90;;;;;;5075198;28;19920;-72
2022/11/15 06:37:14;;;;;;;;;;;23.50;41.90;;;;;;5075199;28;19924;-71
2022/11/15 06:39:39;;;;;;;;;;;23.50;42.00;;;;;;5093261;28;19927;-70
2022/11/15 06:42:05;;;;;;;;;;;23.40;41.90;;;;;;5074695;28;19920;-77
2022/11/15 06:44:30;;;;;;;;;;;23.50;42.00;;;;;;5090119;28;19931;-74
2022/11/15 06:46:56;;;;;;;;;;;21.80;41.70;;;;;;5071987;28;19924;-72
2022/11/15 06:49:21;;;;;;;;;;;23.60;42.40;;;;;;5070989;28;20387;-70
2022/11/15 06:51:47;;;;;;;;;;;23.70;42.40;;;;;;5089837;28;20276;-70
2022/11/15 06:54:12;;;;;;;;;;;23.80;42.40;;;;;;5083598;28;19935;-71
2022/11/15 06:56:38;;;;;;;;;;;23.80;42.40;;;;;;5073512;28;19920;-70
2022/11/15 06:59:03;;;;;;;;;;;23.90;42.40;;;;;;5068440;28;19924;-68
2022/11/15 07:01:29;;;;;;;;;;;23.90;42.50;;;;;;5072918;28;19920;-70
2022/11/15 07:03:54;;;;;;;;;;;23.90;42.80;;;;;;5070660;28;19967;-71
2022/11/15 07:06:20;;;;;;;;;;;23.90;43.00;;;;;;5086926;28;19931;-75
2022/11/15 07:08:45;;;;;;;;;;;23.90;42.60;;;;;;5086748;28;19924;-71
2022/11/15 07:11:11;;;;;;;;;;;23.90;42.90;;;;;;5070790;28;20015;-70
2022/11/15 07:13:37;;;;;;;;;;;23.90;42.60;;;;;;5068056;28;19926;-69
2022/11/15 07:16:03;;;;;;;;;;;23.80;42.80;;;;;;5068848;28;19967;-68
2022/11/15 07:18:29;;;;;;;;;;;23.80;43.50;;;;;;5087123;28;19959;-67
2022/11/15 07:20:55;;;;;;;;;;;23.80;43.70;;;;;;5055095;28;20395;-71
2022/11/15 07:23:20;;;;;;;;;;;23.80;43.40;;;;;;5058151;28;19936;-68
2022/11/15 07:25:46;;;;;;;;;;;23.90;43.80;;;;;;5052464;28;20013;-70
2022/11/15 07:28:11;;;;;;;;;;;23.90;44.10;;;;;;5057452;28;19924;-73
2022/11/15 07:30:37;;;;;;;;;;;24.00;44.10;;;;;;5056932;28;20027;-78
2022/11/15 07:33:03;;;;;;;;;;;24.10;44.10;;;;;;5057771;28;19920;-70
2022/11/15 07:35:28;;;;;;;;;;;24.10;44.10;;;;;;5075139;28;19919;-70
2022/11/15 07:37:55;;;;;;;;;;;24.00;44.30;;;;;;5074169;28;19925;-69
2022/11/15 07:40:21;;;;;;;;;;;24.00;44.30;;;;;;5072511;28;19924;-77
2022/11/15 07:42:53;;;;;;;;;;;24.00;44.30;;;;;;5053871;28;20283;-74
2022/11/15 07:45:20;;;;;;;;;;;24.10;44.40;;;;;;5067696;28;19932;-75
2022/11/15 07:47:46;;;;;;;;;;;24.00;44.50;;;;;;5056571;28;19935;-66
2022/11/15 07:50:12;;;;;;;;;;;23.90;44.50;;;;;;5057621;28;20015;-73
2022/11/15 07:52:37;;;;;;;;;;;23.90;44.90;;;;;;5056809;28;20012;-81
2022/11/15 07:55:03;;;;;;;;;;;23.80;45.70;;;;;;5051335;28;19968;-75
2022/11/15 07:57:29;;;;;;;;;;;23.70;45.70;;;;;;5059071;28;19928;-75
2022/11/15 07:59:54;;;;;;;;;;;23.80;45.60;;;;;;5068643;28;19963;-76
2022/11/15 08:02:20;;;;;;;;;;;23.80;45.80;;;;;;5054926;28;20287;-76
2022/11/15 08:04:45;;;;;;;;;;;23.90;45.80;;;;;;5052633;28;20406;-73
2022/11/15 08:07:11;;;;;;;;;;;23.90;45.80;;;;;;5069396;28;19932;-76
2022/11/15 08:09:36;;;;;;;;;;;23.90;45.70;;;;;;5072827;28;19932;-76
2022/11/15 08:12:02;;;;;;;;;;;23.90;45.60;;;;;;5070011;28;19927;-74
2022/11/15 08:14:27;;;;;;;;;;;23.90;45.60;;;;;;5050569;28;19924;-72
2022/11/15 08:16:54;;;;;;;;;;;23.90;45.60;;;;;;5054286;28;19924;-71
2022/11/15 08:19:20;;;;;;;;;;;23.90;46.00;;;;;;5074948;28;20346;-74
2022/11/15 08:21:46;;;;;;;;;;;23.80;45.40;;;;;;5053620;28;20015;-71
2022/11/15 08:24:11;;;;;;;;;;;23.60;45.90;;;;;;5054743;28;20303;-70
2022/11/15 08:26:37;;;;;;;;;;;23.50;46.00;;;;;;5057098;28;19946;-71
2022/11/15 08:29:02;;;;;;;;;;;23.60;46.40;;;;;;5069910;28;19931;-73
2022/11/15 08:31:28;;;;;;;;;;;23.30;46.80;;;;;;5069824;28;19920;-75
2022/11/15 08:33:53;;;;;;;;;;;23.30;46.90;;;;;;5072888;28;19924;-79
2022/11/15 08:36:19;;;;;;;;;;;23.40;47.40;;;;;;5063844;28;19924;-76
2022/11/15 08:38:45;;;;;;;;;;;23.50;47.30;;;;;;5059834;28;19925;-81
2022/11/15 08:41:13;;;;;;;;;;;23.60;47.10;;;;;;5056421;28;19932;-79
2022/11/15 08:43:39;;;;;;;;;;;23.70;46.90;;;;;;5070946;28;19975;-79
2022/11/15 08:46:04;;;;;;;;;;;23.80;46.60;;;;;;5071410;28;19963;-81
2022/11/15 08:48:30;;;;;;;;;;;23.80;46.60;;;;;;5075176;28;20368;-77
2022/11/15 08:50:56;;;;;;;;;;;23.90;46.40;;;;;;5074993;28;20374;-76
2022/11/15 08:53:21;;;;;;;;;;;24.00;46.20;;;;;;5058008;28;19924;-79
2022/11/15 08:55:47;;;;;;;;;;;24.00;46.10;;;;;;5054927;28;20011;-73
2022/11/15 08:58:12;;;;;;;;;;;24.00;46.30;;;;;;5073234;28;19960;-69
2022/11/15 09:00:38;;;;;;;;;;;24.10;46.40;;;;;;5055240;28;20010;-72
2022/11/15 09:03:04;;;;;;;;;;;24.00;46.30;;;;;;5053469;28;19928;-73
2022/11/15 09:05:30;;;;;;;;;;;24.00;46.40;;;;;;5056722;28;20002;-73
2022/11/15 09:07:55;;;;;;;;;;;23.90;46.20;;;;;;5058304;28;20027;-66
2022/11/15 09:10:21;;;;;;;;;;;23.90;46.70;;;;;;5074318;28;21833;-75
2022/11/15 09:12:48;;;;;;;;;;;23.90;46.90;;;;;;5075656;28;20348;-76
2022/11/15 09:15:14;;;;;;;;;;;23.90;47.10;;;;;;5056532;28;19924;-74
2022/11/15 09:17:39;;;;;;;;;;;23.70;46.80;;;;;;5075976;28;19960;-75
2022/11/15 09:20:05;;;;;;;;;;;23.60;47.60;;;;;;5078617;28;20469;-75
2022/11/15 09:22:31;;;;;;;;;;;23.40;47.50;;;;;;5079559;28;19978;-75
2022/11/15 09:24:56;;;;;;;;;;;23.40;47.90;;;;;;5078728;28;19924;-75
2022/11/15 09:27:22;;;;;;;;;;;23.30;48.10;;;;;;5078302;28;19925;-75
2022/11/15 09:29:47;;;;;;;;;;;23.20;48.30;;;;;;5077231;28;19927;-75
2022/11/15 09:32:13;;;;;;;;;;;23.20;48.30;;;;;;5061910;28;19924;-76
2022/11/15 09:34:38;;;;;;;;;;;23.20;48.80;;;;;;5079688;28;19927;-74
2022/11/15 09:37:04;;;;;;;;;;;23.40;48.50;;;;;;5075651;28;19932;-75
2022/11/15 09:39:29;;;;;;;;;;;23.70;48.30;;;;;;5076053;28;19982;-74
2022/11/15 09:42:01;;;;;;;;;;;23.80;47.90;;;;;;5057603;28;19973;-74
2022/11/15 09:47:25;;;;;;;;;;;23.70;47.30;;;;;;5061724;28;19927;-72
2022/11/15 09:49:54;;;;;;;;;;;23.70;48.30;;;;;;5050907;28;20791;-77
2022/11/15 09:52:21;;;;;;;;;;;23.70;48.20;;;;;;5051931;28;19935;-79
2022/11/15 09:54:47;;;;;;;;;;;23.70;48.00;;;;;;5058029;28;20026;-69
2022/11/15 09:57:31;;;;;;;;;;;23.80;47.90;;;;;;5072175;28;20643;-81
2022/11/15 10:05:25;;;;;;;;;;;23.90;47.50;;;;;;5084191;27;1865376;-81
2022/11/15 10:07:56;;;;;;;;;;;23.90;47.40;;;;;;5122631;27;19922;-80
2022/11/15 10:13:07;;;;;;;;;;;23.90;47.30;;;;;;5078697;27;1868058;-76
2022/11/15 10:15:33;;;;;;;;;;;23.90;47.20;;;;;;5105232;27;20005;-78
2022/11/15 10:21:00;;;;;;;;;;;23.80;47.10;;;;;;5073618;27;1867160;-75
2022/11/15 10:23:26;;;;;;;;;;;23.80;47.10;;;;;;5104046;27;19920;-77
2022/11/15 10:25:54;;;;;;;;;;;23.70;47.10;;;;;;5094314;27;19935;-80
2022/11/15 10:28:28;;;;;;;;;;;23.70;47.20;;;;;;5112738;27;19950;-78
2022/11/15 10:30:55;;;;;;;;;;;23.60;47.20;;;;;;5093494;27;19924;-75
2022/11/15 10:33:24;;;;;;;;;;;23.60;47.30;;;;;;5097573;27;19945;-80
2022/11/15 10:36:10;;;;;;;;;;;23.50;47.30;;;;;;5095791;27;19992;-75
2022/11/15 10:41:34;;;;;;;;;;;23.50;47.30;;;;;;5068404;27;19924;-74
2022/11/15 10:47:03;;;;;;;;;;;23.40;47.30;;;;;;5107162;27;19930;-75
2022/11/15 10:49:29;;;;;;;;;;;23.40;47.40;;;;;;5092230;28;20025;-75
2022/11/15 10:52:15;;;;;;;;;;;23.40;47.40;;;;;;5115212;27;19966;-77
2022/11/15 10:54:43;;;;;;;;;;;23.40;47.40;;;;;;5121612;27;20013;-74
2022/11/15 10:57:17;;;;;;;;;;;23.30;47.40;;;;;;5092677;28;19928;-75
2022/11/15 10:59:45;;;;;;;;;;;23.20;47.40;;;;;;5092764;28;20038;-75
2022/11/15 11:02:31;;;;;;;;;;;23.20;47.50;;;;;;5120286;27;19924;-77
2022/11/15 11:04:56;;;;;;;;;;;23.10;47.60;;;;;;5095000;28;20360;-76
2022/11/15 11:07:23;;;;;;;;;;;23.10;47.80;;;;;;5123986;27;19934;-71
2022/11/15 11:09:57;;;;;;;;;;;23.10;47.70;;;;;;5086055;28;20319;-78
2022/11/15 11:12:27;;;;;;;;;;;23.20;47.60;;;;;;5093543;28;20057;-72
2022/11/15 11:14:52;;;;;;;;;;;23.00;47.40;;;;;;5090293;28;19932;-78
2022/11/15 11:33:31;;;;;;;;;;;23.40;47.10;;;;;;5112000;27;19916;-78
2022/11/15 11:38:43;;;;;;;;;;;23.50;47.60;;;;;;5079922;27;19942;-67
2022/11/15 11:49:15;;;;;;;;;;;23.50;48.70;;;;;;5165792;27;19929;-67
2022/11/15 11:51:43;;;;;;;;;;;23.50;48.80;;;;;;5121327;27;19949;-75
2022/11/15 11:56:48;;;;;;;;;;;23.50;49.20;;;;;;5091441;27;1883063;-72
2022/11/15 11:59:21;;;;;;;;;;;23.50;49.00;;;;;;5137338;27;20485;-78
2022/11/15 12:01:46;;;;;;;;;;;23.50;49.00;;;;;;5123159;27;20026;-73
2022/11/15 12:07:01;;;;;;;;;;;23.70;48.80;;;;;;5080030;27;1914759;-74
2022/11/15 12:09:32;;;;;;;;;;;23.70;49.10;;;;;;5104088;27;19919;-73
2022/11/15 12:14:49;;;;;;;;;;;24.00;48.80;;;;;;5085958;27;19920;-80
2022/11/15 12:17:16;;;;;;;;;;;23.90;48.80;;;;;;5111134;27;20034;-76
2022/11/15 12:19:42;;;;;;;;;;;23.90;48.90;;;;;;5091066;28;20003;-76
2022/11/15 12:25:13;;;;;;;;;;;23.80;48.80;;;;;;5086294;27;20299;-77
2022/11/15 12:27:42;;;;;;;;;;;23.70;48.60;;;;;;5108986;28;19924;-82
2022/11/15 12:30:10;;;;;;;;;;;23.60;49.20;;;;;;5076314;28;19924;-78
2022/11/15 12:32:37;;;;;;;;;;;23.60;49.40;;;;;;5079698;28;20027;-75
2022/11/15 12:35:05;;;;;;;;;;;23.60;49.50;;;;;;5078859;28;20435;-84
2022/11/15 12:37:32;;;;;;;;;;;23.50;49.50;;;;;;5077177;28;19928;-74
2022/11/15 12:42:57;;;;;;;;;;;23.50;49.90;;;;;;5071272;27;1875026;-74
2022/11/15 12:45:27;;;;;;;;;;;23.50;49.80;;;;;;5118607;27;19992;-76
2022/11/15 12:47:53;;;;;;;;;;;23.50;50.70;;;;;;5119067;27;20391;-78
2022/11/15 12:50:39;;;;;;;;;;;23.40;50.10;;;;;;5117822;27;19958;-75
2022/11/15 12:53:24;;;;;;;;;;;23.60;50.90;;;;;;5112562;27;19924;-75
2022/11/15 12:56:10;;;;;;;;;;;23.30;50.10;;;;;;5111807;27;19923;-78
2022/11/15 12:58:55;;;;;;;;;;;23.40;50.30;;;;;;5113730;27;19954;-78
2022/11/15 13:06:59;;;;;;;;;;;22.40;49.20;;;;;;5113303;27;1875480;-74
2022/11/15 13:17:53;;;;;;;;;;;23.20;50.10;;;;;;5065647;27;19920;-74
2022/11/15 13:20:22;;;;;;;;;;;23.20;50.10;;;;;;5067119;28;20395;-75
2022/11/15 13:25:47;;;;;;;;;;;23.40;50.10;;;;;;5059230;28;19943;-75
2022/11/15 13:30:56;;;;;;;;;;;23.50;49.80;;;;;;5074790;27;19923;-72
2022/11/15 13:33:25;;;;;;;;;;;23.60;49.50;;;;;;5054170;28;19921;-80
2022/11/15 13:35:54;;;;;;;;;;;23.60;49.60;;;;;;5089011;28;20521;-75
2022/11/15 13:38:36;;;;;;;;;;;23.70;49.60;;;;;;5086112;28;19932;-83
2022/11/15 13:41:20;;;;;;;;;;;23.70;49.50;;;;;;5053729;28;19975;-74
2022/11/15 13:43:46;;;;;;;;;;;23.70;49.50;;;;;;5052193;28;20025;-82
2022/11/15 13:46:16;;;;;;;;;;;23.70;49.60;;;;;;5053836;28;20340;-79
2022/11/15 13:48:42;;;;;;;;;;;23.70;49.60;;;;;;5053506;28;19951;-72
2022/11/15 13:51:14;;;;;;;;;;;23.70;49.60;;;;;;5058269;28;19925;-84
2022/11/15 13:53:41;;;;;;;;;;;23.70;49.70;;;;;;5055565;28;19925;-79
2022/11/15 13:56:07;;;;;;;;;;;23.70;49.70;;;;;;5044707;28;19932;-72
2022/11/15 13:58:33;;;;;;;;;;;23.60;49.60;;;;;;5052596;28;19931;-74
2022/11/15 14:01:01;;;;;;;;;;;23.70;49.70;;;;;;5047467;28;19927;-82
2022/11/15 14:03:29;;;;;;;;;;;23.70;49.60;;;;;;5052065;28;19928;-77
2022/11/15 14:06:12;;;;;;;;;;;23.70;49.80;;;;;;5055851;28;19972;-72
2022/11/15 14:08:38;;;;;;;;;;;23.70;49.80;;;;;;5057302;28;19925;-76
2022/11/15 14:11:06;;;;;;;;;;;23.60;49.90;;;;;;5056750;28;19970;-78
2022/11/15 14:13:31;;;;;;;;;;;23.60;50.10;;;;;;5052151;28;20027;-77
2022/11/15 14:16:16;;;;;;;;;;;23.60;49.60;;;;;;5060757;28;20154;-77
2022/11/15 14:18:50;;;;;;;;;;;24.10;48.70;;;;;;5054908;28;20408;-81
2022/11/15 14:21:17;;;;;;;;;;;23.30;48.30;;;;;;5057627;28;19932;-79
2022/11/15 14:23:43;;;;;;;;;;;23.30;48.70;;;;;;5092827;28;19924;-79
2022/11/15 14:26:28;;;;;;;;;;;23.20;48.80;;;;;;5060618;28;19920;-78
2022/11/15 14:28:54;;;;;;;;;;;23.30;48.90;;;;;;5058648;28;19929;-79
2022/11/15 14:31:20;;;;;;;;;;;23.30;48.90;;;;;;5062467;28;19974;-78
2022/11/15 14:33:46;;;;;;;;;;;23.20;48.80;;;;;;5059714;28;20346;-79
2022/11/15 14:36:14;;;;;;;;;;;23.30;48.80;;;;;;5061244;28;19928;-77
2022/11/15 14:38:40;;;;;;;;;;;23.30;48.70;;;;;;5039022;28;19921;-79
2022/11/15 14:41:10;;;;;;;;;;;23.30;48.70;;;;;;5040301;28;19921;-78
2022/11/15 14:43:35;;;;;;;;;;;23.30;48.70;;;;;;5045244;28;19920;-77
2022/11/15 14:46:01;;;;;;;;;;;23.30;48.60;;;;;;5046092;28;19936;-74
2022/11/15 14:48:26;;;;;;;;;;;23.40;48.40;;;;;;5046953;28;20368;-82
2022/11/15 14:50:52;;;;;;;;;;;23.40;48.30;;;;;;5049979;28;19970;-82
2022/11/15 14:53:18;;;;;;;;;;;23.40;47.80;;;;;;5050306;28;19921;-77
2022/11/15 14:55:44;;;;;;;;;;;23.30;47.60;;;;;;5048528;28;19935;-78
2022/11/15 14:58:10;;;;;;;;;;;23.40;47.40;;;;;;5048020;28;20233;-79
2022/11/15 15:00:36;;;;;;;;;;;23.50;47.30;;;;;;5064720;28;19921;-80
2022/11/15 15:03:03;;;;;;;;;;;23.60;47.10;;;;;;5041327;28;19921;-74
2022/11/15 15:05:33;;;;;;;;;;;23.80;46.80;;;;;;5047380;28;20035;-75
2022/11/15 15:07:59;;;;;;;;;;;23.90;46.30;;;;;;5047363;28;19928;-73
2022/11/15 15:10:25;;;;;;;;;;;24.10;46.20;;;;;;5077909;28;20071;-74
2022/11/15 15:12:50;;;;;;;;;;;24.10;46.20;;;;;;5049384;28;19932;-77
2022/11/15 15:15:20;;;;;;;;;;;24.20;46.10;;;;;;5048214;28;19929;-82
2022/11/15 15:17:45;;;;;;;;;;;24.20;46.00;;;;;;5044699;28;20211;-80
2022/11/15 15:20:11;;;;;;;;;;;24.30;45.80;;;;;;5050241;28;19920;-73
2022/11/15 15:22:37;;;;;;;;;;;24.30;45.80;;;;;;5049789;28;19932;-84
2022/11/15 15:25:03;;;;;;;;;;;24.20;45.50;;;;;;5051721;28;19916;-83
2022/11/15 15:27:29;;;;;;;;;;;24.10;45.70;;;;;;5049292;28;19966;-79
2022/11/15 15:29:54;;;;;;;;;;;22.10;44.60;;;;;;5042419;28;19924;-75
2022/11/15 15:32:20;;;;;;;;;;;23.80;45.80;;;;;;5049951;28;20372;-75
2022/11/15 15:34:46;;;;;;;;;;;23.50;46.00;;;;;;5042920;28;19971;-82
2022/11/15 15:37:23;;;;;;;;;;;23.30;46.40;;;;;;5046325;28;19916;-81
2022/11/15 15:39:50;;;;;;;;;;;23.10;46.80;;;;;;5077258;28;19921;-81
2022/11/15 15:42:15;;;;;;;;;;;23.00;47.20;;;;;;5031607;28;19928;-82
2022/11/15 15:44:40;;;;;;;;;;;22.90;47.40;;;;;;5048476;28;19920;-81
2022/11/15 15:47:10;;;;;;;;;;;22.70;47.60;;;;;;5049726;28;19928;-81
2022/11/15 15:49:35;;;;;;;;;;;22.60;47.90;;;;;;5047789;28;19921;-82
2022/11/15 15:52:01;;;;;;;;;;;22.50;48.20;;;;;;5076283;28;19963;-80
2022/11/15 15:54:26;;;;;;;;;;;22.40;48.30;;;;;;5049598;28;19974;-81
2022/11/15 15:56:52;;;;;;;;;;;22.30;48.70;;;;;;5049015;28;20380;-79
2022/11/15 15:59:17;;;;;;;;;;;22.20;48.80;;;;;;5047798;28;19928;-79
2022/11/15 16:01:43;;;;;;;;;;;24.10;50.20;;;;;;5047603;28;19932;-81
2022/11/15 16:04:09;;;;;;;;;;;22.00;49.10;;;;;;5071148;28;20365;-81
2022/11/15 16:06:37;;;;;;;;;;;22.00;49.20;;;;;;5075321;28;19974;-80
2022/11/15 16:09:03;;;;;;;;;;;21.80;49.40;;;;;;5049030;28;19924;-81